Time;durP1;ratioP1;P1;durP2;ratioP2;P2;SDS_P1;SDS_P2;PMS_P1;PMS_P2;Temp;Humidity;BMP_temperature;BMP_pressure;BME280_temperature;BME280_humidity;BME280_pressure;Samples;Min_cycle;Max_cycle;Signal;HPM_P1;HPM_P2
2023/01/31 00:01:07;;;;;;;20.65;11.45;;;4.20;99.90;;;;;;5031059;28;19908;-66
2023/01/31 00:03:33;;;;;;;23.25;12.30;;;4.20;99.90;;;;;;5030532;28;20090;-67
2023/01/31 00:06:12;;;;;;;25.05;12.07;;;4.20;99.90;;;;;;5030787;28;20030;-67
2023/01/31 00:08:37;;;;;;;23.10;12.90;;;4.20;99.90;;;;;;5030363;28;20026;-67
2023/01/31 00:11:03;;;;;;;24.50;13.20;;;4.20;99.90;;;;;;5021220;28;20574;-67
2023/01/31 00:13:29;;;;;;;27.00;13.67;;;4.30;99.90;;;;;;5022653;28;20073;-66
2023/01/31 00:15:57;;;;;;;27.80;13.10;;;4.20;99.90;;;;;;5030516;28;20045;-67
2023/01/31 00:18:23;;;;;;;25.17;14.07;;;4.20;99.90;;;;;;5029419;28;20061;-67
2023/01/31 00:20:48;;;;;;;31.87;15.37;;;4.20;99.90;;;;;;5030523;28;20069;-67
2023/01/31 00:23:14;;;;;;;24.33;12.77;;;4.20;99.90;;;;;;5030027;28;20489;-66
2023/01/31 00:25:40;;;;;;;27.95;13.90;;;4.20;99.90;;;;;;5029603;28;20029;-67
2023/01/31 00:28:05;;;;;;;25.70;13.27;;;4.20;99.90;;;;;;5030542;28;20033;-68
2023/01/31 00:30:31;;;;;;;28.73;15.37;;;4.20;99.90;;;;;;5030337;28;20040;-67
2023/01/31 00:32:57;;;;;;;27.03;14.40;;;4.20;99.90;;;;;;5030180;28;20025;-67
2023/01/31 00:35:22;;;;;;;26.80;13.97;;;4.20;99.90;;;;;;5030168;28;20048;-67
2023/01/31 00:37:48;;;;;;;27.33;14.13;;;4.20;99.90;;;;;;5029401;28;20036;-67
2023/01/31 00:40:13;;;;;;;27.00;14.20;;;4.20;99.90;;;;;;5023938;28;20034;-66
2023/01/31 00:42:39;;;;;;;26.97;14.57;;;4.20;99.90;;;;;;5008679;28;20034;-67
2023/01/31 00:45:05;;;;;;;30.50;14.33;;;4.20;99.90;;;;;;5026898;28;20584;-67
2023/01/31 00:47:31;;;;;;;;;;;4.20;99.90;;;;;;5012681;28;20044;-67
2023/01/31 00:49:56;;;;;;;24.88;12.60;;;4.20;99.90;;;;;;5009124;28;19913;-67
2023/01/31 00:52:22;;;;;;;26.57;15.17;;;4.20;99.90;;;;;;5029917;28;20022;-67
2023/01/31 00:54:48;;;;;;;27.57;14.33;;;4.30;99.90;;;;;;5029344;28;20473;-67
2023/01/31 00:57:13;;;;;;;27.03;13.77;;;4.20;99.90;;;;;;5029541;28;20083;-67
2023/01/31 00:59:39;;;;;;;28.60;15.37;;;4.20;99.90;;;;;;5011768;28;20060;-67
2023/01/31 01:02:04;;;;;;;29.53;14.17;;;4.20;99.90;;;;;;5027844;28;20037;-67
2023/01/31 01:04:30;;;;;;;26.13;14.53;;;4.20;99.90;;;;;;5029801;28;20510;-67
2023/01/31 01:06:55;;;;;;;23.87;12.57;;;4.20;99.90;;;;;;5011894;28;20021;-67
2023/01/31 01:09:21;;;;;;;33.67;14.13;;;4.20;99.90;;;;;;5029157;28;20036;-67
2023/01/31 01:11:47;;;;;;;27.70;14.20;;;4.30;99.90;;;;;;5029415;28;20037;-67
2023/01/31 01:14:13;;;;;;;22.10;12.13;;;4.20;99.90;;;;;;5028097;28;20160;-68
2023/01/31 01:16:40;;;;;;;24.58;13.07;;;4.20;99.90;;;;;;5026676;28;20563;-66
2023/01/31 01:19:10;;;;;;;18.60;11.25;;;4.20;99.90;;;;;;5016975;28;20040;-66
2023/01/31 01:21:39;;;;;;;22.05;11.70;;;4.30;99.90;;;;;;5017008;28;20041;-66
2023/01/31 01:24:07;;;;;;;18.77;10.93;;;4.20;99.90;;;;;;5024126;28;20099;-66
2023/01/31 01:26:33;;;;;;;22.40;11.45;;;4.20;99.90;;;;;;5028951;28;20025;-67
2023/01/31 01:29:01;;;;;;;20.35;11.80;;;4.20;99.90;;;;;;5022056;28;20044;-66
2023/01/31 01:31:28;;;;;;;20.45;11.30;;;4.20;99.90;;;;;;5018795;28;20037;-66
2023/01/31 01:33:57;;;;;;;20.38;11.27;;;4.20;99.90;;;;;;5016954;28;20038;-66
2023/01/31 01:36:23;;;;;;;20.05;10.98;;;4.20;99.90;;;;;;5028646;28;20025;-66
2023/01/31 01:38:49;;;;;;;20.70;12.20;;;4.20;99.90;;;;;;5024645;28;20025;-66
2023/01/31 01:41:15;;;;;;;19.97;11.20;;;4.20;99.90;;;;;;5020459;28;20037;-66
2023/01/31 01:43:49;;;;;;;19.77;10.98;;;4.20;99.90;;;;;;5018599;28;20076;-66
2023/01/31 01:46:25;;;;;;;21.35;11.75;;;4.30;99.90;;;;;;5008864;28;20557;-66
2023/01/31 01:48:59;;;;;;;18.38;10.02;;;4.30;99.90;;;;;;5017031;28;20034;-66
2023/01/31 01:51:27;;;;;;;25.20;11.77;;;4.30;99.90;;;;;;5016524;28;20052;-66
2023/01/31 01:53:57;;;;;;;20.90;11.32;;;4.20;99.90;;;;;;5025535;28;20032;-66
2023/01/31 01:56:32;;;;;;;21.88;11.48;;;4.20;99.90;;;;;;5019351;28;20025;-66
2023/01/31 01:59:07;;;;;;;20.73;11.90;;;4.20;99.90;;;;;;5016866;28;20029;-66
2023/01/31 02:01:36;;;;;;;20.08;10.68;;;4.20;99.90;;;;;;5021686;28;20420;-65
2023/01/31 02:04:05;;;;;;;20.92;11.13;;;4.30;99.90;;;;;;5020245;28;20038;-66
2023/01/31 02:06:31;;;;;;;19.30;10.75;;;4.30;99.90;;;;;;5018061;28;20152;-66
2023/01/31 02:08:57;;;;;;;20.63;11.38;;;4.30;99.90;;;;;;5013131;28;20105;-67
2023/01/31 02:11:28;;;;;;;24.05;13.55;;;4.30;99.90;;;;;;5021406;28;20049;-67
2023/01/31 02:14:07;;;;;;;22.33;11.98;;;4.30;99.90;;;;;;5018904;28;20048;-67
2023/01/31 02:16:33;;;;;;;24.50;13.00;;;4.30;99.90;;;;;;5024970;28;20052;-66
2023/01/31 02:18:59;;;;;;;23.25;12.43;;;4.30;99.90;;;;;;5018295;28;20038;-66
2023/01/31 02:21:31;;;;;;;22.85;13.02;;;4.30;99.90;;;;;;5019529;28;20037;-66
2023/01/31 02:24:21;;;;;;;25.42;13.02;;;4.30;99.90;;;;;;5019835;28;20033;-66
2023/01/31 02:27:01;;;;;;;25.02;13.88;;;4.30;99.90;;;;;;5019472;28;20362;-66
2023/01/31 02:29:51;;;;;;;26.27;13.57;;;4.30;99.90;;;;;;5024741;28;20563;-66
2023/01/31 02:32:41;;;;;;;31.40;14.02;;;4.30;99.90;;;;;;5020435;28;20040;-66
2023/01/31 02:35:29;;;;;;;27.55;14.43;;;4.20;99.90;;;;;;5016597;28;20073;-66
2023/01/31 02:38:03;;;;;;;27.63;14.13;;;4.20;99.90;;;;;;5016135;28;20021;-66
2023/01/31 02:40:42;;;;;;;26.65;12.43;;;4.20;99.90;;;;;;5022702;28;20085;-66
2023/01/31 02:43:17;;;;;;;22.00;12.60;;;4.30;99.90;;;;;;5026202;28;20091;-66
2023/01/31 02:46:05;;;;;;;21.88;12.38;;;4.30;99.90;;;;;;5026416;28;20041;-66
2023/01/31 02:48:51;;;;;;;23.98;11.93;;;4.30;99.90;;;;;;5011441;28;20116;-66
2023/01/31 02:51:23;;;;;;;24.05;11.88;;;4.30;99.90;;;;;;5022127;28;20041;-66
2023/01/31 02:54:04;;;;;;;22.00;12.18;;;4.30;99.90;;;;;;5022340;28;20025;-66
2023/01/31 02:56:33;;;;;;;23.95;11.90;;;4.30;99.90;;;;;;5026678;28;20116;-66
2023/01/31 02:59:09;;;;;;;22.10;11.50;;;4.30;99.90;;;;;;5025341;28;20036;-66
2023/01/31 03:01:39;;;;;;;20.95;11.85;;;4.30;99.90;;;;;;5025408;28;20048;-67
2023/01/31 03:04:07;;;;;;;22.13;11.57;;;4.30;99.90;;;;;;5008478;28;20033;-67
2023/01/31 03:06:35;;;;;;;22.55;11.75;;;4.30;99.90;;;;;;5026395;28;20033;-66
2023/01/31 03:09:20;;;;;;;26.92;12.48;;;4.30;99.90;;;;;;5017822;28;20029;-66
2023/01/31 03:11:58;;;;;;;26.27;12.73;;;4.30;99.90;;;;;;5024395;28;20076;-67
2023/01/31 03:14:56;;;;;;;22.25;12.07;;;4.30;99.90;;;;;;5026715;28;20079;-67
2023/01/31 03:17:32;;;;;;;;;;;4.40;99.90;;;;;;4973624;28;20044;-67
2023/01/31 03:20:14;;;;;;;24.33;12.63;;;4.40;99.90;;;;;;5025326;28;19913;-67
2023/01/31 03:22:47;;;;;;;19.70;11.48;;;4.30;99.90;;;;;;5021631;28;20025;-67
2023/01/31 03:25:17;;;;;;;20.50;11.38;;;4.40;99.90;;;;;;5025225;28;20125;-67
2023/01/31 03:27:47;;;;;;;29.15;13.48;;;4.30;99.90;;;;;;5026207;28;20045;-67
2023/01/31 03:30:17;;;;;;;22.52;11.80;;;4.30;99.90;;;;;;5025239;28;20103;-66
2023/01/31 03:32:57;;;;;;;21.88;13.15;;;4.40;99.90;;;;;;5026117;28;20104;-67
2023/01/31 03:35:27;;;;;;;23.63;13.02;;;4.40;99.90;;;;;;5026456;28;20029;-66
2023/01/31 03:38:09;;;;;;;24.27;12.38;;;4.40;99.90;;;;;;5025700;28;20087;-66
2023/01/31 03:40:42;;;;;;;22.52;12.32;;;4.40;99.90;;;;;;5008360;28;20088;-66
2023/01/31 03:43:30;;;;;;;24.85;11.75;;;4.30;99.90;;;;;;5024517;28;20409;-67
2023/01/31 03:46:08;;;;;;;27.17;12.55;;;4.30;99.90;;;;;;5025572;28;20045;-67
2023/01/31 03:48:38;;;;;;;21.98;13.05;;;4.40;99.90;;;;;;5025344;28;20032;-66
2023/01/31 03:51:08;;;;;;;23.27;11.75;;;4.40;99.90;;;;;;5024864;28;20089;-67
2023/01/31 03:53:42;;;;;;;27.13;13.65;;;4.40;99.90;;;;;;5008161;28;20034;-67
2023/01/31 03:56:41;;;;;;;28.35;13.63;;;4.40;99.90;;;;;;5025715;28;20481;-67
2023/01/31 03:59:11;;;;;;;23.10;12.70;;;4.40;99.90;;;;;;5005461;28;20107;-67
2023/01/31 04:01:41;;;;;;;25.38;12.38;;;4.40;99.90;;;;;;5022304;28;20033;-67
2023/01/31 04:04:13;;;;;;;21.65;10.95;;;4.30;99.90;;;;;;5023446;28;20068;-67
2023/01/31 04:06:39;;;;;;;25.00;12.57;;;4.30;99.90;;;;;;5025332;28;20030;-68
2023/01/31 04:09:04;;;;;;;26.63;13.98;;;4.30;99.90;;;;;;5024368;28;20374;-68
2023/01/31 04:11:37;;;;;;;22.75;12.40;;;4.30;99.90;;;;;;5012217;28;20041;-67
2023/01/31 04:14:03;;;;;;;23.60;13.43;;;4.30;99.90;;;;;;5028117;28;20028;-67
2023/01/31 04:16:28;;;;;;;24.80;12.73;;;4.30;99.90;;;;;;5029629;28;20246;-67
2023/01/31 04:18:55;;;;;;;26.20;12.93;;;4.40;99.90;;;;;;5029939;28;20906;-67
2023/01/31 04:21:21;;;;;;;28.38;14.85;;;4.40;99.90;;;;;;5029248;28;20104;-67
2023/01/31 04:23:47;;;;;;;36.08;15.45;;;4.30;99.90;;;;;;5029453;28;20108;-66
2023/01/31 04:26:12;;;;;;;31.27;14.02;;;4.30;99.90;;;;;;5029560;28;20112;-66
2023/01/31 04:28:39;;;;;;;28.50;13.70;;;4.30;99.90;;;;;;5029371;28;20184;-66
2023/01/31 04:31:04;;;;;;;;;;;4.30;99.90;;;;;;5022905;28;20104;-67
2023/01/31 04:33:30;;;;;;;25.30;13.07;;;4.30;99.90;;;;;;5025198;28;19909;-66
2023/01/31 04:35:56;;;;;;;33.05;15.18;;;4.30;99.90;;;;;;5028322;28;20025;-66
2023/01/31 04:38:22;;;;;;;30.10;14.32;;;4.30;99.90;;;;;;5027610;28;20124;-66
2023/01/31 04:40:48;;;;;;;31.80;15.57;;;4.30;99.90;;;;;;5026776;28;20449;-66
2023/01/31 04:43:13;;;;;;;25.23;12.87;;;4.30;99.90;;;;;;5006426;28;20044;-66
2023/01/31 04:45:39;;;;;;;31.97;15.30;;;4.30;99.90;;;;;;5027970;28;20049;-66
2023/01/31 04:48:05;;;;;;;25.47;13.97;;;4.30;99.90;;;;;;5027233;28;20041;-66
2023/01/31 04:50:31;;;;;;;30.60;14.70;;;4.30;99.90;;;;;;5021504;28;20073;-66
2023/01/31 04:52:56;;;;;;;40.43;18.10;;;4.40;99.90;;;;;;5023972;28;20072;-66
2023/01/31 04:55:22;;;;;;;36.80;17.00;;;4.40;99.90;;;;;;5025855;28;20043;-67
2023/01/31 04:57:47;;;;;;;35.00;16.10;;;4.30;99.90;;;;;;5025719;28;20034;-67
2023/01/31 05:00:13;;;;;;;38.40;16.83;;;4.30;99.90;;;;;;5023157;28;20033;-66
2023/01/31 05:02:39;;;;;;;88.65;36.17;;;4.40;99.90;;;;;;5008420;28;20429;-67
2023/01/31 05:05:06;;;;;;;59.90;26.03;;;4.30;99.90;;;;;;5023502;28;20033;-67
2023/01/31 05:07:32;;;;;;;50.08;20.85;;;4.40;99.90;;;;;;5002021;28;20053;-67
2023/01/31 05:09:57;;;;;;;76.22;31.10;;;4.30;99.90;;;;;;5025366;28;20080;-67
2023/01/31 05:12:23;;;;;;;94.53;37.73;;;4.30;99.90;;;;;;5026384;28;20034;-66
2023/01/31 05:14:50;;;;;;;42.90;20.67;;;4.30;99.90;;;;;;5025433;28;20692;-66
2023/01/31 05:17:15;;;;;;;36.35;17.38;;;4.20;99.90;;;;;;5024456;28;20095;-67
2023/01/31 05:19:42;;;;;;;35.77;16.30;;;4.20;99.90;;;;;;5027707;28;20560;-66
2023/01/31 05:22:08;;;;;;;34.67;16.38;;;4.20;99.90;;;;;;5025701;28;20509;-67
2023/01/31 05:24:35;;;;;;;27.07;13.40;;;4.20;99.90;;;;;;5023950;28;20025;-67
2023/01/31 05:27:01;;;;;;;32.85;17.23;;;4.20;99.90;;;;;;5008223;28;20033;-67
2023/01/31 05:29:29;;;;;;;33.78;16.15;;;4.20;99.90;;;;;;5009226;28;20196;-67
2023/01/31 05:31:57;;;;;;;28.85;13.55;;;4.20;99.90;;;;;;5023051;28;20513;-66
2023/01/31 05:34:24;;;;;;;26.27;15.18;;;4.20;99.90;;;;;;5024084;28;20028;-66
2023/01/31 05:36:50;;;;;;;26.52;13.18;;;4.20;99.90;;;;;;5020260;28;20101;-67
2023/01/31 05:39:16;;;;;;;;;;;4.20;99.90;;;;;;5024840;28;20063;-66
2023/01/31 05:41:42;;;;;;;27.42;13.77;;;4.20;99.90;;;;;;5020015;28;19917;-66
2023/01/31 05:44:09;;;;;;;27.33;14.07;;;4.20;99.90;;;;;;5017793;28;20057;-67
2023/01/31 05:46:35;;;;;;;31.08;13.45;;;4.20;99.90;;;;;;5018166;28;20127;-67
2023/01/31 05:49:01;;;;;;;26.98;13.05;;;4.20;99.90;;;;;;5017669;28;20135;-66
2023/01/31 05:51:26;;;;;;;29.87;13.70;;;4.10;99.90;;;;;;5021296;28;20041;-66
2023/01/31 05:53:53;;;;;;;27.57;13.83;;;4.20;99.90;;;;;;5020720;28;20040;-66
2023/01/31 05:56:19;;;;;;;32.47;13.88;;;4.10;99.90;;;;;;5020080;28;20048;-66
2023/01/31 05:58:49;;;;;;;29.60;14.23;;;4.00;99.90;;;;;;5023050;28;20064;-67
2023/01/31 06:01:21;;;;;;;28.92;13.98;;;4.00;99.90;;;;;;5021215;28;20493;-66
2023/01/31 06:03:46;;;;;;;28.48;13.63;;;4.00;99.90;;;;;;5023320;28;20550;-66
2023/01/31 06:06:12;;;;;;;28.67;12.40;;;3.90;99.90;;;;;;5020107;28;20025;-66
2023/01/31 06:08:38;;;;;;;24.75;13.10;;;3.80;99.90;;;;;;5020382;28;20324;-67
2023/01/31 06:11:04;;;;;;;26.30;12.38;;;3.80;99.90;;;;;;5016904;28;20045;-66
2023/01/31 06:13:31;;;;;;;32.30;13.52;;;3.70;99.90;;;;;;5017729;28;20090;-66
2023/01/31 06:15:56;;;;;;;27.25;13.13;;;3.60;99.90;;;;;;5023527;28;20052;-66
2023/01/31 06:18:22;;;;;;;29.80;15.43;;;3.50;99.90;;;;;;5021977;28;20493;-66
2023/01/31 06:20:48;;;;;;;28.88;14.68;;;3.40;99.90;;;;;;5023207;28;20041;-67
2023/01/31 06:23:13;;;;;;;36.78;16.30;;;3.30;99.90;;;;;;5021958;28;20036;-66
2023/01/31 06:25:39;;;;;;;36.23;15.67;;;3.40;99.90;;;;;;5024369;28;20045;-68
2023/01/31 06:28:05;;;;;;;33.83;15.47;;;3.30;99.90;;;;;;5018641;28;20728;-67
2023/01/31 06:30:31;;;;;;;37.28;15.13;;;3.30;99.90;;;;;;5020478;28;20045;-67
2023/01/31 06:33:00;;;;;;;36.35;17.35;;;3.30;99.90;;;;;;5023385;28;20061;-67
2023/01/31 06:35:25;;;;;;;35.08;16.58;;;3.30;99.90;;;;;;5020734;28;20144;-67
2023/01/31 06:37:51;;;;;;;43.60;21.57;;;3.20;99.90;;;;;;5017287;28;20113;-66
2023/01/31 06:40:17;;;;;;;46.33;21.07;;;3.20;99.90;;;;;;5003479;28;20033;-66
2023/01/31 06:42:42;;;;;;;44.00;22.38;;;3.20;99.90;;;;;;5018026;28;20033;-66
2023/01/31 06:45:09;;;;;;;51.42;22.33;;;3.00;99.90;;;;;;5023427;28;20037;-66
2023/01/31 06:47:34;;;;;;;50.67;21.85;;;3.00;99.90;;;;;;5016535;28;20476;-66
2023/01/31 06:50:00;;;;;;;46.07;21.17;;;2.90;99.90;;;;;;5016773;28;20530;-66
2023/01/31 06:52:25;;;;;;;46.13;19.57;;;2.90;99.90;;;;;;5020931;28;20109;-66
2023/01/31 06:54:51;;;;;;;42.50;17.07;;;2.90;99.90;;;;;;5022554;28;20033;-66
2023/01/31 06:57:17;;;;;;;37.30;17.13;;;2.80;99.90;;;;;;5018254;28;20033;-66
2023/01/31 06:59:42;;;;;;;31.10;16.03;;;2.80;99.90;;;;;;5011438;28;20025;-67
2023/01/31 07:02:10;;;;;;;37.80;14.73;;;2.70;99.90;;;;;;5014728;28;20034;-66
2023/01/31 07:04:35;;;;;;;34.40;15.85;;;2.80;99.90;;;;;;5019576;28;20030;-67
2023/01/31 07:07:01;;;;;;;33.23;15.37;;;2.80;99.90;;;;;;5019974;28;20033;-66
2023/01/31 07:09:27;;;;;;;32.33;14.95;;;2.90;99.90;;;;;;5019139;28;20034;-66
2023/01/31 07:11:52;;;;;;;32.83;15.57;;;2.90;99.90;;;;;;5021618;28;20527;-66
2023/01/31 07:14:18;;;;;;;37.30;14.33;;;3.00;99.90;;;;;;5021553;28;20036;-67
2023/01/31 07:16:43;;;;;;;32.40;14.50;;;3.00;99.90;;;;;;5016470;28;20040;-66
2023/01/31 07:19:09;;;;;;;32.13;14.47;;;3.00;99.90;;;;;;5020672;28;20502;-66
2023/01/31 07:21:35;;;;;;;31.38;13.98;;;3.00;99.90;;;;;;5015731;28;20034;-66
2023/01/31 07:24:02;;;;;;;37.60;17.17;;;3.00;99.90;;;;;;5022953;28;20025;-66
2023/01/31 07:26:28;;;;;;;33.88;15.20;;;3.00;99.90;;;;;;5020167;28;20029;-66
2023/01/31 07:28:54;;;;;;;32.47;15.93;;;3.10;99.90;;;;;;5012909;28;20119;-66
2023/01/31 07:31:19;;;;;;;35.77;15.13;;;3.10;99.90;;;;;;5021568;28;20136;-66
2023/01/31 07:33:45;;;;;;;41.53;17.15;;;3.10;99.90;;;;;;5020048;28;20038;-66
2023/01/31 07:36:14;;;;;;;38.42;18.63;;;3.20;99.90;;;;;;5021448;28;20022;-66
2023/01/31 07:38:40;;;;;;;40.22;18.35;;;3.30;99.90;;;;;;5009001;28;20030;-66
2023/01/31 07:41:07;;;;;;;43.03;18.45;;;3.40;99.90;;;;;;5022596;28;20044;-66
2023/01/31 07:43:33;;;;;;;42.05;19.95;;;3.30;99.90;;;;;;5016850;28;20087;-66
2023/01/31 07:45:59;;;;;;;52.22;22.77;;;3.40;99.90;;;;;;5020693;28;20122;-66
2023/01/31 07:48:25;;;;;;;49.53;24.07;;;3.40;99.90;;;;;;5024205;28;20064;-66
2023/01/31 07:51:01;;;;;;;47.45;20.33;;;3.60;99.90;;;;;;5022206;28;20075;-66
2023/01/31 07:53:29;;;;;;;42.45;18.05;;;3.60;99.90;;;;;;5021850;28;20080;-66
2023/01/31 07:56:03;;;;;;;31.00;16.67;;;3.60;99.90;;;;;;5021371;28;20425;-66
2023/01/31 07:58:29;;;;;;;34.72;15.10;;;3.80;99.90;;;;;;5012186;28;20033;-66
2023/01/31 08:03:40;;;;;;;32.80;15.63;;;4.00;99.90;;;;;;5024592;28;20068;-66
2023/01/31 08:06:09;;;;;;;34.97;16.00;;;4.20;99.90;;;;;;5023239;28;20120;-66
2023/01/31 08:08:39;;;;;;;35.70;15.50;;;4.40;99.90;;;;;;5023839;28;20049;-67
2023/01/31 08:11:05;;;;;;;25.77;14.30;;;4.60;99.90;;;;;;5025029;28;20056;-66
2023/01/31 08:13:32;;;;;;;29.80;13.98;;;5.90;99.90;;;;;;5027622;28;20033;-67
2023/01/31 08:15:58;;;;;;;32.08;14.45;;;6.30;99.90;;;;;;5024575;28;20168;-67
2023/01/31 08:18:24;;;;;;;31.52;14.93;;;6.10;99.90;;;;;;5025996;28;20044;-66
2023/01/31 08:20:49;;;;;;;30.65;13.77;;;5.90;99.90;;;;;;5024616;28;20095;-67
2023/01/31 08:23:15;;;;;;;28.37;14.03;;;6.00;99.90;;;;;;5022083;28;20025;-67
2023/01/31 08:25:41;;;;;;;25.77;12.73;;;5.80;99.90;;;;;;5025454;28;20029;-67
2023/01/31 08:28:06;;;;;;;23.87;11.83;;;5.70;99.90;;;;;;5009128;28;20045;-66
2023/01/31 08:30:32;;;;;;;25.83;13.00;;;5.70;99.90;;;;;;5025874;28;20113;-67
2023/01/31 08:32:58;;;;;;;30.77;13.77;;;5.60;99.90;;;;;;5024611;28;20044;-66
2023/01/31 08:35:25;;;;;;;29.03;13.43;;;5.90;99.90;;;;;;5024059;28;20060;-66
2023/01/31 08:37:51;;;;;;;27.75;14.13;;;5.90;99.90;;;;;;5022148;28;20112;-66
2023/01/31 08:40:17;;;;;;;28.25;14.07;;;5.80;99.90;;;;;;5022528;28;20100;-66
2023/01/31 08:42:42;;;;;;;29.65;14.60;;;5.60;99.90;;;;;;5019977;28;20033;-66
2023/01/31 08:45:08;;;;;;;28.07;14.37;;;5.60;99.90;;;;;;5020681;28;20069;-67
2023/01/31 08:47:35;;;;;;;37.70;16.73;;;5.50;99.90;;;;;;5025902;28;20037;-66
2023/01/31 08:50:01;;;;;;;26.83;13.00;;;5.90;99.90;;;;;;5023764;28;20045;-66
2023/01/31 08:52:26;;;;;;;29.65;14.45;;;5.60;99.90;;;;;;5019786;28;20072;-66
2023/01/31 08:54:52;;;;;;;29.23;15.13;;;5.50;99.90;;;;;;5023844;28;20413;-66
2023/01/31 08:57:19;;;;;;;28.67;13.07;;;5.40;99.90;;;;;;5017393;28;20088;-67
2023/01/31 08:59:45;;;;;;;28.55;15.98;;;5.40;99.90;;;;;;5024140;28;20033;-67
2023/01/31 09:02:10;;;;;;;23.27;13.50;;;6.00;99.90;;;;;;5022234;28;20037;-66
2023/01/31 09:04:36;;;;;;;25.63;14.67;;;6.10;99.90;;;;;;5022862;28;20084;-66
2023/01/31 09:07:02;;;;;;;25.33;12.97;;;7.40;99.90;;;;;;5023259;28;20018;-66
2023/01/31 09:09:27;;;;;;;24.70;12.40;;;7.00;99.90;;;;;;5023898;28;20025;-67
2023/01/31 09:11:53;;;;;;;20.60;11.67;;;9.30;97.50;;;;;;5005417;28;20412;-67
2023/01/31 09:14:18;;;;;;;20.83;10.20;;;8.60;96.60;;;;;;5022971;28;20080;-67
2023/01/31 09:16:47;;;;;;;21.60;10.80;;;8.70;97.10;;;;;;5024480;28;20025;-67
2023/01/31 09:19:12;;;;;;;22.20;11.35;;;11.00;93.80;;;;;;5018041;28;20034;-67
2023/01/31 09:21:38;;;;;;;18.70;10.93;;;10.90;91.50;;;;;;5021817;28;20041;-67
2023/01/31 09:24:04;;;;;;;24.97;10.80;;;10.30;91.80;;;;;;5021428;28;20026;-67
2023/01/31 09:26:30;;;;;;;21.38;11.25;;;11.30;92.20;;;;;;5005131;28;20037;-67
2023/01/31 09:28:57;;;;;;;18.73;11.57;;;11.20;90.90;;;;;;5022432;28;20056;-66
2023/01/31 09:31:23;;;;;;;21.73;11.15;;;12.70;87.00;;;;;;5021315;28;20131;-67
2023/01/31 09:33:49;;;;;;;17.50;9.67;;;14.00;80.90;;;;;;5007122;28;20509;-66
2023/01/31 09:36:17;;;;;;;22.87;10.77;;;14.10;79.40;;;;;;5001232;28;20025;-67
2023/01/31 09:38:44;;;;;;;23.70;10.57;;;13.50;76.80;;;;;;5017128;28;20029;-66
2023/01/31 09:41:31;;;;;;;16.55;10.18;;;13.80;76.60;;;;;;5019801;28;20065;-67
2023/01/31 09:44:11;;;;;;;19.42;11.95;;;13.50;81.30;;;;;;5020223;28;20099;-66
2023/01/31 09:46:43;;;;;;;17.80;10.98;;;12.40;82.60;;;;;;5021467;28;20037;-66
2023/01/31 09:49:19;;;;;;;17.42;10.73;;;11.40;86.60;;;;;;5020881;28;20026;-66
2023/01/31 09:51:50;;;;;;;24.30;11.00;;;10.60;90.30;;;;;;5021731;28;20040;-66
2023/01/31 09:54:26;;;;;;;23.30;9.60;;;11.00;91.30;;;;;;5017847;28;20037;-66
2023/01/31 09:57:25;;;;;;;16.27;9.43;;;11.40;88.00;;;;;;5019662;28;20109;-67
2023/01/31 10:00:12;;;;;;;18.75;10.30;;;11.20;87.30;;;;;;5021421;28;20072;-66
2023/01/31 10:02:50;;;;;;;16.10;9.57;;;11.90;87.20;;;;;;5022529;28;20898;-67
2023/01/31 10:05:36;;;;;;;19.52;9.63;;;13.20;83.40;;;;;;5018397;28;20112;-66
2023/01/31 10:08:59;;;;;;;18.45;10.02;;;14.60;77.10;;;;;;5022960;28;20040;-66
2023/01/31 10:11:42;;;;;;;18.42;9.45;;;13.10;75.40;;;;;;4986397;28;20052;-66
2023/01/31 10:14:10;;;;;;;18.77;9.77;;;11.00;84.80;;;;;;5020994;28;20034;-66
2023/01/31 10:16:46;;;;;;;17.10;9.63;;;9.60;90.60;;;;;;5014075;28;20044;-66
2023/01/31 10:19:20;;;;;;;19.88;9.40;;;9.50;92.90;;;;;;5018557;28;20500;-65
2023/01/31 10:21:53;;;;;;;16.25;9.68;;;10.20;91.60;;;;;;5022446;28;20040;-66
2023/01/31 10:24:30;;;;;;;20.13;9.88;;;11.20;88.90;;;;;;5018938;28;20033;-67
2023/01/31 10:27:02;;;;;;;17.75;9.93;;;12.50;83.60;;;;;;5024948;28;20453;-67
2023/01/31 10:29:36;;;;;;;15.75;8.88;;;13.70;76.20;;;;;;5023036;28;20029;-67
2023/01/31 10:32:18;;;;;;;24.13;9.02;;;12.20;79.00;;;;;;5017509;28;20076;-67
2023/01/31 10:34:52;;;;;;;16.48;8.27;;;10.90;84.80;;;;;;5019284;28;20135;-66
2023/01/31 10:37:40;;;;;;;13.48;7.93;;;9.80;89.60;;;;;;5002451;28;20116;-66
2023/01/31 10:40:11;;;;;;;15.95;7.93;;;9.20;92.30;;;;;;5017928;28;20045;-65
2023/01/31 10:42:39;;;;;;;14.90;9.45;;;9.00;91.80;;;;;;5019243;28;20492;-66
2023/01/31 10:45:07;;;;;;;14.82;7.28;;;8.70;92.20;;;;;;5017676;28;20036;-65
2023/01/31 10:47:34;;;;;;;15.30;7.68;;;8.60;92.70;;;;;;5018598;28;20057;-66
2023/01/31 10:50:02;;;;;;;13.98;7.40;;;8.50;92.90;;;;;;5018596;28;20722;-66
2023/01/31 10:52:37;;;;;;;13.70;7.45;;;8.40;92.70;;;;;;5018526;28;20069;-66
2023/01/31 10:55:27;;;;;;;13.38;8.05;;;8.10;93.30;;;;;;5025190;28;20053;-67
2023/01/31 10:57:53;;;;;;;17.77;7.70;;;8.00;93.80;;;;;;5025362;28;20040;-66
2023/01/31 11:00:27;;;;;;;11.88;6.72;;;8.10;93.70;;;;;;5021820;28;20029;-66
2023/01/31 11:02:53;;;;;;;15.02;6.93;;;8.60;92.70;;;;;;5015691;28;20026;-66
2023/01/31 11:05:21;;;;;;;16.20;7.47;;;8.30;92.60;;;;;;5022095;28;20092;-66
2023/01/31 11:07:47;;;;;;;13.55;6.57;;;7.80;93.10;;;;;;5014591;28;20079;-65
2023/01/31 11:10:26;;;;;;;12.50;7.13;;;7.70;93.10;;;;;;5015778;28;20030;-65
2023/01/31 11:12:56;;;;;;;13.50;6.85;;;7.50;94.00;;;;;;5022463;28;20038;-66
2023/01/31 11:15:25;;;;;;;14.07;6.90;;;7.60;93.80;;;;;;5021242;28;20400;-65
2023/01/31 11:17:51;;;;;;;17.55;8.88;;;7.70;93.70;;;;;;4998209;28;20031;-66
2023/01/31 11:20:28;;;;;;;25.65;8.50;;;7.80;93.30;;;;;;5021266;28;20030;-66
2023/01/31 11:22:55;;;;;;;13.43;7.28;;;7.70;93.40;;;;;;5018819;28;20034;-67
2023/01/31 11:25:23;;;;;;;9.80;5.75;;;7.50;94.00;;;;;;5015166;28;20026;-67
2023/01/31 11:27:52;;;;;;;13.00;6.32;;;7.20;94.20;;;;;;5022591;28;20023;-68
2023/01/31 11:30:31;;;;;;;10.77;6.43;;;7.20;94.20;;;;;;5005645;28;20022;-67
2023/01/31 11:32:57;;;;;;;15.85;7.25;;;7.20;94.20;;;;;;5015908;28;20048;-65
2023/01/31 11:35:27;;;;;;;11.98;6.90;;;7.30;94.10;;;;;;5021334;28;20047;-67
2023/01/31 11:38:01;;;;;;;10.25;5.82;;;7.30;93.80;;;;;;5018813;28;20092;-65
2023/01/31 11:40:39;;;;;;;11.20;5.18;;;7.20;93.70;;;;;;5023638;28;20207;-66
2023/01/31 11:43:22;;;;;;;10.55;4.78;;;7.30;93.60;;;;;;5022742;28;20034;-66
2023/01/31 11:45:59;;;;;;;10.50;6.00;;;7.30;92.30;;;;;;5021703;28;20029;-67
2023/01/31 11:48:27;;;;;;;;;;;7.20;93.60;;;;;;5013138;28;20033;-65
2023/01/31 11:51:00;;;;;;;9.15;5.38;;;7.20;93.90;;;;;;4995093;28;20401;-68
2023/01/31 11:53:28;;;;;;;7.55;4.18;;;7.30;93.30;;;;;;5022721;28;20543;-73
2023/01/31 11:55:57;;;;;;;9.23;4.65;;;7.40;91.80;;;;;;5002489;28;20025;-71
2023/01/31 11:58:35;;;;;;;8.50;5.05;;;7.40;92.00;;;;;;5017634;28;20140;-65
2023/01/31 12:01:22;;;;;;;10.98;5.20;;;7.40;92.00;;;;;;5017883;28;20040;-65
2023/01/31 12:03:58;;;;;;;12.18;5.22;;;7.40;92.00;;;;;;5018490;28;20136;-67
2023/01/31 12:06:35;;;;;;;11.35;5.15;;;7.50;92.20;;;;;;4996177;28;20412;-68
2023/01/31 12:09:23;;;;;;;8.93;4.80;;;7.50;93.00;;;;;;5000028;28;20025;-68
2023/01/31 12:12:01;;;;;;;7.85;4.45;;;7.50;92.10;;;;;;5012994;28;20053;-67
2023/01/31 12:14:39;;;;;;;7.85;4.68;;;7.50;91.90;;;;;;5017590;28;20489;-69
2023/01/31 12:17:10;;;;;;;11.77;4.82;;;7.60;91.70;;;;;;5017420;28;20108;-67
2023/01/31 12:19:41;;;;;;;13.02;5.63;;;7.70;92.20;;;;;;5017922;28;20087;-69
2023/01/31 12:22:42;;;;;;;11.63;5.25;;;7.80;91.30;;;;;;5016174;28;20032;-69
2023/01/31 12:25:15;;;;;;;9.85;5.25;;;7.80;92.10;;;;;;4945387;28;20051;-67
2023/01/31 12:28:00;;;;;;;9.38;5.07;;;7.80;91.30;;;;;;5012145;28;20010;-66
2023/01/31 12:30:26;;;;;;;9.07;4.40;;;7.80;91.60;;;;;;5018212;28;20037;-68
2023/01/31 12:33:16;;;;;;;9.60;5.43;;;7.90;91.50;;;;;;5014951;28;20056;-66
2023/01/31 12:35:51;;;;;;;11.07;6.57;;;8.00;92.10;;;;;;5020045;28;20081;-67
2023/01/31 12:38:44;;;;;;;12.65;6.55;;;8.10;93.20;;;;;;5019563;28;20025;-66
2023/01/31 12:41:25;;;;;;;10.75;6.50;;;8.30;93.00;;;;;;5015743;28;20029;-67
2023/01/31 12:44:08;;;;;;;13.63;7.68;;;8.20;93.00;;;;;;5020072;28;20040;-65
2023/01/31 12:47:14;;;;;;;12.07;6.97;;;8.30;93.30;;;;;;5020357;28;20084;-66
2023/01/31 12:49:46;;;;;;;13.77;8.10;;;8.40;93.60;;;;;;5020101;28;20036;-70
2023/01/31 12:52:50;;;;;;;14.85;8.05;;;8.50;93.50;;;;;;5014815;28;20029;-68
2023/01/31 12:55:34;;;;;;;12.50;8.27;;;8.50;92.60;;;;;;4945743;28;20551;-70
2023/01/31 12:58:21;;;;;;;15.00;8.35;;;8.50;93.10;;;;;;5000960;28;20476;-67
2023/01/31 13:00:58;;;;;;;21.05;9.18;;;8.60;91.60;;;;;;5020753;28;20038;-68